sensor_id;sensor_type;location;lat;lon;timestamp;temperature;humidity
3356;DHT22;1691;52.486;13.374;2023-03-01T00:00:32;1.40;76.50
3356;DHT22;1691;52.486;13.374;2023-03-01T00:03:30;1.30;76.50
3356;DHT22;1691;52.486;13.374;2023-03-01T00:06:28;1.20;76.50
3356;DHT22;1691;52.486;13.374;2023-03-01T00:09:12;1.20;76.70
3356;DHT22;1691;52.486;13.374;2023-03-01T00:11:59;1.10;76.90
3356;DHT22;1691;52.486;13.374;2023-03-01T00:14:54;1.10;77.00
3356;DHT22;1691;52.486;13.374;2023-03-01T00:18:04;1.00;77.20
3356;DHT22;1691;52.486;13.374;2023-03-01T00:21:36;0.90;77.60
3356;DHT22;1691;52.486;13.374;2023-03-01T00:28:28;0.70;77.80
3356;DHT22;1691;52.486;13.374;2023-03-01T00:31:55;0.70;77.80
3356;DHT22;1691;52.486;13.374;2023-03-01T00:35:22;0.70;78.00
3356;DHT22;1691;52.486;13.374;2023-03-01T00:42:24;0.60;78.50
3356;DHT22;1691;52.486;13.374;2023-03-01T00:45:16;0.60;78.50
3356;DHT22;1691;52.486;13.374;2023-03-01T00:48:08;0.60;78.70
3356;DHT22;1691;52.486;13.374;2023-03-01T00:51:35;0.60;78.90
3356;DHT22;1691;52.486;13.374;2023-03-01T00:54:51;0.60;79.10
3356;DHT22;1691;52.486;13.374;2023-03-01T01:02:11;0.60;79.50
3356;DHT22;1691;52.486;13.374;2023-03-01T01:05:34;0.70;79.70
3356;DHT22;1691;52.486;13.374;2023-03-01T01:12:03;0.70;79.70
3356;DHT22;1691;52.486;13.374;2023-03-01T01:15:16;0.70;79.80
3356;DHT22;1691;52.486;13.374;2023-03-01T01:23:17;0.70;80.00
3356;DHT22;1691;52.486;13.374;2023-03-01T01:27:06;0.60;80.00
3356;DHT22;1691;52.486;13.374;2023-03-01T01:30:38;0.60;80.20
3356;DHT22;1691;52.486;13.374;2023-03-01T01:38:36;0.60;80.60
3356;DHT22;1691;52.486;13.374;2023-03-01T01:42:01;0.60;80.60
3356;DHT22;1691;52.486;13.374;2023-03-01T01:56:58;0.50;81.30
3356;DHT22;1691;52.486;13.374;2023-03-01T01:59:16;0.50;81.30
3356;DHT22;1691;52.486;13.374;2023-03-01T02:02:33;0.40;81.50
3356;DHT22;1691;52.486;13.374;2023-03-01T02:09:15;0.40;81.70
3356;DHT22;1691;52.486;13.374;2023-03-01T02:15:56;0.30;81.90
3356;DHT22;1691;52.486;13.374;2023-03-01T02:23:53;0.30;82.30
3356;DHT22;1691;52.486;13.374;2023-03-01T02:27:33;0.30;82.10
3356;DHT22;1691;52.486;13.374;2023-03-01T02:31:33;0.40;82.30
3356;DHT22;1691;52.486;13.374;2023-03-01T02:35:05;0.30;82.30
3356;DHT22;1691;52.486;13.374;2023-03-01T02:38:54;0.30;82.40
3356;DHT22;1691;52.486;13.374;2023-03-01T02:42:45;0.20;82.40
3356;DHT22;1691;52.486;13.374;2023-03-01T02:46:30;0.20;83.00
3356;DHT22;1691;52.486;13.374;2023-03-01T02:57:11;0.20;83.00
3356;DHT22;1691;52.486;13.374;2023-03-01T02:59:59;0.20;83.20
3356;DHT22;1691;52.486;13.374;2023-03-01T03:03:00;0.20;83.40
3356;DHT22;1691;52.486;13.374;2023-03-01T03:06:28;0.20;83.60
3356;DHT22;1691;52.486;13.374;2023-03-01T03:09:51;0.20;83.80
3356;DHT22;1691;52.486;13.374;2023-03-01T03:13:08;0.20;83.90
3356;DHT22;1691;52.486;13.374;2023-03-01T03:16:28;0.30;83.90
3356;DHT22;1691;52.486;13.374;2023-03-01T03:19:27;0.30;84.10
3356;DHT22;1691;52.486;13.374;2023-03-01T03:22:45;0.30;83.90
3356;DHT22;1691;52.486;13.374;2023-03-01T03:25:35;0.20;83.90
3356;DHT22;1691;52.486;13.374;2023-03-01T03:29:29;0.20;84.10
3356;DHT22;1691;52.486;13.374;2023-03-01T03:36:33;0.00;84.30
3356;DHT22;1691;52.486;13.374;2023-03-01T03:39:47;-0.10;84.50
3356;DHT22;1691;52.486;13.374;2023-03-01T03:50:28;-0.20;85.10
3356;DHT22;1691;52.486;13.374;2023-03-01T03:53:32;-0.30;85.20
3356;DHT22;1691;52.486;13.374;2023-03-01T03:56:44;-0.30;85.20
3356;DHT22;1691;52.486;13.374;2023-03-01T04:03:45;-0.30;85.60
3356;DHT22;1691;52.486;13.374;2023-03-01T04:06:49;-0.30;85.60
3356;DHT22;1691;52.486;13.374;2023-03-01T04:10:46;-0.30;85.80
3356;DHT22;1691;52.486;13.374;2023-03-01T04:18:12;-0.40;85.80
3356;DHT22;1691;52.486;13.374;2023-03-01T04:21:38;-0.40;85.80
3356;DHT22;1691;52.486;13.374;2023-03-01T04:25:14;-0.40;85.80
3356;DHT22;1691;52.486;13.374;2023-03-01T04:28:05;-0.40;86.00
3356;DHT22;1691;52.486;13.374;2023-03-01T04:31:50;-0.50;86.20
3356;DHT22;1691;52.486;13.374;2023-03-01T04:35:26;-0.50;86.40
3356;DHT22;1691;52.486;13.374;2023-03-01T04:38:56;-0.50;86.50
3356;DHT22;1691;52.486;13.374;2023-03-01T04:42:23;-0.60;86.50
3356;DHT22;1691;52.486;13.374;2023-03-01T04:46:11;-0.70;86.50
3356;DHT22;1691;52.486;13.374;2023-03-01T04:49:39;-0.70;86.70
3356;DHT22;1691;52.486;13.374;2023-03-01T04:53:58;-0.80;86.90
3356;DHT22;1691;52.486;13.374;2023-03-01T05:05:07;-0.90;87.30
3356;DHT22;1691;52.486;13.374;2023-03-01T05:07:53;-0.90;87.50
3356;DHT22;1691;52.486;13.374;2023-03-01T05:11:34;-0.90;87.70
3356;DHT22;1691;52.486;13.374;2023-03-01T05:18:58;-1.00;87.90
3356;DHT22;1691;52.486;13.374;2023-03-01T05:25:46;-0.90;88.00
3356;DHT22;1691;52.486;13.374;2023-03-01T05:28:17;-0.90;88.00
3356;DHT22;1691;52.486;13.374;2023-03-01T05:31:28;-0.90;88.20
3356;DHT22;1691;52.486;13.374;2023-03-01T05:34:52;-0.90;88.40
3356;DHT22;1691;52.486;13.374;2023-03-01T05:38:03;-0.90;88.60
3356;DHT22;1691;52.486;13.374;2023-03-01T05:40:51;-0.90;88.60
3356;DHT22;1691;52.486;13.374;2023-03-01T05:44:12;-0.90;88.80
3356;DHT22;1691;52.486;13.374;2023-03-01T05:48:24;-0.90;88.80
3356;DHT22;1691;52.486;13.374;2023-03-01T05:51:54;-1.00;88.80
3356;DHT22;1691;52.486;13.374;2023-03-01T05:55:19;-1.00;89.00
3356;DHT22;1691;52.486;13.374;2023-03-01T05:58:54;-1.00;89.20
3356;DHT22;1691;52.486;13.374;2023-03-01T06:01:44;-1.00;89.30
3356;DHT22;1691;52.486;13.374;2023-03-01T06:05:26;-1.00;89.50
3356;DHT22;1691;52.486;13.374;2023-03-01T06:09:06;-0.90;89.70
3356;DHT22;1691;52.486;13.374;2023-03-01T06:12:21;-0.90;89.90
3356;DHT22;1691;52.486;13.374;2023-03-01T06:15:47;-0.70;89.90
3356;DHT22;1691;52.486;13.374;2023-03-01T06:19:12;-0.60;90.10
3356;DHT22;1691;52.486;13.374;2023-03-01T06:22:46;-0.50;90.10
3356;DHT22;1691;52.486;13.374;2023-03-01T06:28:52;-0.10;90.10
3356;DHT22;1691;52.486;13.374;2023-03-01T06:31:52;0.20;90.10
3356;DHT22;1691;52.486;13.374;2023-03-01T06:34:31;0.60;90.40
3356;DHT22;1691;52.486;13.374;2023-03-01T06:37:11;1.20;90.60
3356;DHT22;1691;52.486;13.374;2023-03-01T06:40:38;1.90;90.50
3356;DHT22;1691;52.486;13.374;2023-03-01T06:43:11;2.60;90.30
3356;DHT22;1691;52.486;13.374;2023-03-01T06:46:02;3.50;89.90
3356;DHT22;1691;52.486;13.374;2023-03-01T06:48:47;4.10;88.80
3356;DHT22;1691;52.486;13.374;2023-03-01T06:51:36;4.60;88.00
3356;DHT22;1691;52.486;13.374;2023-03-01T06:55:04;5.00;87.30
3356;DHT22;1691;52.486;13.374;2023-03-01T06:58:13;5.40;86.50
3356;DHT22;1691;52.486;13.374;2023-03-01T07:01:00;5.90;86.20
3356;DHT22;1691;52.486;13.374;2023-03-01T07:04:39;6.50;85.20
3356;DHT22;1691;52.486;13.374;2023-03-01T07:07:45;7.10;83.60
3356;DHT22;1691;52.486;13.374;2023-03-01T07:10:49;7.80;82.30
3356;DHT22;1691;52.486;13.374;2023-03-01T07:13:47;8.50;80.80
3356;DHT22;1691;52.486;13.374;2023-03-01T07:16:38;9.20;79.10
3356;DHT22;1691;52.486;13.374;2023-03-01T07:19:53;9.80;77.20
3356;DHT22;1691;52.486;13.374;2023-03-01T07:22:33;10.50;75.20
3356;DHT22;1691;52.486;13.374;2023-03-01T07:25:43;11.00;73.50
3356;DHT22;1691;52.486;13.374;2023-03-01T07:28:38;11.60;71.30
3356;DHT22;1691;52.486;13.374;2023-03-01T07:31:47;12.00;69.40
3356;DHT22;1691;52.486;13.374;2023-03-01T07:34:42;12.50;66.60
3356;DHT22;1691;52.486;13.374;2023-03-01T07:37:30;12.70;65.90
3356;DHT22;1691;52.486;13.374;2023-03-01T07:40:42;13.00;63.80
3356;DHT22;1691;52.486;13.374;2023-03-01T07:47:43;13.70;60.10
3356;DHT22;1691;52.486;13.374;2023-03-01T07:50:28;14.00;59.60
3356;DHT22;1691;52.486;13.374;2023-03-01T07:53:39;14.40;58.40
3356;DHT22;1691;52.486;13.374;2023-03-01T07:56:34;14.80;56.70
3356;DHT22;1691;52.486;13.374;2023-03-01T07:59:02;15.10;55.00
3356;DHT22;1691;52.486;13.374;2023-03-01T08:01:41;15.10;54.10
3356;DHT22;1691;52.486;13.374;2023-03-01T08:04:23;15.30;52.40
3356;DHT22;1691;52.486;13.374;2023-03-01T08:07:05;15.60;51.50
3356;DHT22;1691;52.486;13.374;2023-03-01T08:10:01;15.70;50.40
3356;DHT22;1691;52.486;13.374;2023-03-01T08:13:11;15.80;49.20
3356;DHT22;1691;52.486;13.374;2023-03-01T08:19:43;16.30;48.10
3356;DHT22;1691;52.486;13.374;2023-03-01T08:22:47;16.50;46.50
3356;DHT22;1691;52.486;13.374;2023-03-01T08:25:24;16.80;46.20
3356;DHT22;1691;52.486;13.374;2023-03-01T08:28:09;17.20;45.50
3356;DHT22;1691;52.486;13.374;2023-03-01T08:31:41;17.60;43.90
3356;DHT22;1691;52.486;13.374;2023-03-01T08:38:17;18.10;41.90
3356;DHT22;1691;52.486;13.374;2023-03-01T08:41:16;18.30;41.60
3356;DHT22;1691;52.486;13.374;2023-03-01T08:44:01;18.60;41.90
3356;DHT22;1691;52.486;13.374;2023-03-01T08:46:48;18.70;40.90
3356;DHT22;1691;52.486;13.374;2023-03-01T08:50:38;18.80;39.30
3356;DHT22;1691;52.486;13.374;2023-03-01T08:58:06;19.30;37.80
3356;DHT22;1691;52.486;13.374;2023-03-01T09:01:59;19.60;38.90
3356;DHT22;1691;52.486;13.374;2023-03-01T09:05:27;19.90;36.50
3356;DHT22;1691;52.486;13.374;2023-03-01T09:11:27;19.80;36.90
3356;DHT22;1691;52.486;13.374;2023-03-01T09:14:19;20.20;35.30
3356;DHT22;1691;52.486;13.374;2023-03-01T09:17:33;20.30;35.50
3356;DHT22;1691;52.486;13.374;2023-03-01T09:20:38;20.20;34.50
3356;DHT22;1691;52.486;13.374;2023-03-01T09:23:23;20.10;33.90
3356;DHT22;1691;52.486;13.374;2023-03-01T09:26:37;20.00;33.50
3356;DHT22;1691;52.486;13.374;2023-03-01T09:29:58;19.90;32.10
3356;DHT22;1691;52.486;13.374;2023-03-01T09:33:53;20.00;32.40
3356;DHT22;1691;52.486;13.374;2023-03-01T09:37:27;20.20;32.70
3356;DHT22;1691;52.486;13.374;2023-03-01T09:40:41;20.40;31.80
3356;DHT22;1691;52.486;13.374;2023-03-01T09:44:01;20.30;32.10
3356;DHT22;1691;52.486;13.374;2023-03-01T09:47:01;20.00;31.80
3356;DHT22;1691;52.486;13.374;2023-03-01T09:53:53;19.60;31.50
3356;DHT22;1691;52.486;13.374;2023-03-01T09:56:47;19.40;31.30
3356;DHT22;1691;52.486;13.374;2023-03-01T10:18:47;19.20;31.50
3356;DHT22;1691;52.486;13.374;2023-03-01T10:21:45;19.40;30.90
3356;DHT22;1691;52.486;13.374;2023-03-01T10:24:34;19.10;31.20
3356;DHT22;1691;52.486;13.374;2023-03-01T10:30:59;18.90;30.50
3356;DHT22;1691;52.486;13.374;2023-03-01T10:34:44;18.30;31.20
3356;DHT22;1691;52.486;13.374;2023-03-01T10:37:36;17.50;31.50
3356;DHT22;1691;52.486;13.374;2023-03-01T10:41:27;17.10;32.40
3356;DHT22;1691;52.486;13.374;2023-03-01T10:54:35;15.50;33.50
3356;DHT22;1691;52.486;13.374;2023-03-01T10:58:24;15.30;33.60
3356;DHT22;1691;52.486;13.374;2023-03-01T11:01:37;14.90;33.50
3356;DHT22;1691;52.486;13.374;2023-03-01T11:08:01;14.10;34.20
3356;DHT22;1691;52.486;13.374;2023-03-01T11:14:45;13.50;35.50
3356;DHT22;1691;52.486;13.374;2023-03-01T11:17:34;13.40;35.60
3356;DHT22;1691;52.486;13.374;2023-03-01T11:20:35;13.40;35.90
3356;DHT22;1691;52.486;13.374;2023-03-01T11:23:16;13.20;35.60
3356;DHT22;1691;52.486;13.374;2023-03-01T11:26:05;12.90;35.60
3356;DHT22;1691;52.486;13.374;2023-03-01T11:28:45;12.70;35.30
3356;DHT22;1691;52.486;13.374;2023-03-01T11:31:23;12.30;35.50
3356;DHT22;1691;52.486;13.374;2023-03-01T11:34:11;12.10;35.60
3356;DHT22;1691;52.486;13.374;2023-03-01T11:36:54;11.80;35.60
3356;DHT22;1691;52.486;13.374;2023-03-01T11:56:05;10.40;36.90
3356;DHT22;1691;52.486;13.374;2023-03-01T12:08:54;9.70;37.60
3356;DHT22;1691;52.486;13.374;2023-03-01T12:15:47;9.50;37.80
3356;DHT22;1691;52.486;13.374;2023-03-01T12:19:11;9.50;37.60
3356;DHT22;1691;52.486;13.374;2023-03-01T12:37:44;8.90;37.60
3356;DHT22;1691;52.486;13.374;2023-03-01T13:08:16;9.00;38.20
3356;DHT22;1691;52.486;13.374;2023-03-01T13:11:04;9.00;38.50
3356;DHT22;1691;52.486;13.374;2023-03-01T13:18:00;9.10;38.40
3356;DHT22;1691;52.486;13.374;2023-03-01T13:21:35;9.10;38.20
3356;DHT22;1691;52.486;13.374;2023-03-01T13:42:25;9.10;36.40
3356;DHT22;1691;52.486;13.374;2023-03-01T13:49:28;9.00;36.10
3356;DHT22;1691;52.486;13.374;2023-03-01T13:52:55;9.00;36.50
3356;DHT22;1691;52.486;13.374;2023-03-01T13:55:45;9.00;36.40
3356;DHT22;1691;52.486;13.374;2023-03-01T13:58:51;8.90;36.70
3356;DHT22;1691;52.486;13.374;2023-03-01T14:05:01;8.90;36.50
3356;DHT22;1691;52.486;13.374;2023-03-01T14:07:54;8.90;36.50
3356;DHT22;1691;52.486;13.374;2023-03-01T14:17:59;8.90;36.40
3356;DHT22;1691;52.486;13.374;2023-03-01T14:20:59;8.90;36.20
3356;DHT22;1691;52.486;13.374;2023-03-01T14:23:59;8.90;36.20
3356;DHT22;1691;52.486;13.374;2023-03-01T14:26:39;8.80;36.20
3356;DHT22;1691;52.486;13.374;2023-03-01T14:29:39;8.80;36.20
3356;DHT22;1691;52.486;13.374;2023-03-01T14:32:29;8.80;36.20
3356;DHT22;1691;52.486;13.374;2023-03-01T14:35:36;8.80;36.40
3356;DHT22;1691;52.486;13.374;2023-03-01T14:38:47;8.80;36.50
3356;DHT22;1691;52.486;13.374;2023-03-01T14:41:54;8.90;36.50
3356;DHT22;1691;52.486;13.374;2023-03-01T14:49:24;8.90;36.90
3356;DHT22;1691;52.486;13.374;2023-03-01T14:52:17;8.90;37.00
3356;DHT22;1691;52.486;13.374;2023-03-01T14:55:50;8.90;37.20
3356;DHT22;1691;52.486;13.374;2023-03-01T14:58:37;8.90;37.50
3356;DHT22;1691;52.486;13.374;2023-03-01T15:01:35;8.90;37.60
3356;DHT22;1691;52.486;13.374;2023-03-01T15:04:54;8.90;37.60
3356;DHT22;1691;52.486;13.374;2023-03-01T15:07:50;8.90;37.80
3356;DHT22;1691;52.486;13.374;2023-03-01T15:11:28;8.90;38.10
3356;DHT22;1691;52.486;13.374;2023-03-01T15:14:43;8.80;38.40
3356;DHT22;1691;52.486;13.374;2023-03-01T15:21:37;8.80;39.20
3356;DHT22;1691;52.486;13.374;2023-03-01T15:24:14;8.80;39.90
3356;DHT22;1691;52.486;13.374;2023-03-01T15:26:52;8.80;40.20
3356;DHT22;1691;52.486;13.374;2023-03-01T15:29:27;8.80;40.50
3356;DHT22;1691;52.486;13.374;2023-03-01T15:32:06;8.80;40.90
3356;DHT22;1691;52.486;13.374;2023-03-01T15:34:59;8.70;41.20
3356;DHT22;1691;52.486;13.374;2023-03-01T15:37:46;8.70;41.50
3356;DHT22;1691;52.486;13.374;2023-03-01T15:40:21;8.60;41.90
3356;DHT22;1691;52.486;13.374;2023-03-01T15:43:03;8.60;42.20
3356;DHT22;1691;52.486;13.374;2023-03-01T15:45:32;8.60;42.50
3356;DHT22;1691;52.486;13.374;2023-03-01T15:48:17;8.60;42.70
3356;DHT22;1691;52.486;13.374;2023-03-01T15:50:54;8.50;43.00
3356;DHT22;1691;52.486;13.374;2023-03-01T15:53:22;8.50;43.30
3356;DHT22;1691;52.486;13.374;2023-03-01T15:55:49;8.40;43.50
3356;DHT22;1691;52.486;13.374;2023-03-01T15:58:22;8.40;43.80
3356;DHT22;1691;52.486;13.374;2023-03-01T16:00:51;8.40;43.80
3356;DHT22;1691;52.486;13.374;2023-03-01T16:03:29;8.40;43.90
3356;DHT22;1691;52.486;13.374;2023-03-01T16:05:56;8.30;44.10
3356;DHT22;1691;52.486;13.374;2023-03-01T16:08:23;8.30;44.20
3356;DHT22;1691;52.486;13.374;2023-03-01T16:10:50;8.20;44.40
3356;DHT22;1691;52.486;13.374;2023-03-01T16:13:18;8.20;44.50
3356;DHT22;1691;52.486;13.374;2023-03-01T16:15:45;8.20;44.50
3356;DHT22;1691;52.486;13.374;2023-03-01T16:18:12;8.10;44.70
3356;DHT22;1691;52.486;13.374;2023-03-01T16:20:39;8.10;44.90
3356;DHT22;1691;52.486;13.374;2023-03-01T16:23:08;8.00;45.20
3356;DHT22;1691;52.486;13.374;2023-03-01T16:25:35;8.00;45.20
3356;DHT22;1691;52.486;13.374;2023-03-01T16:28:02;7.90;45.30
3356;DHT22;1691;52.486;13.374;2023-03-01T16:30:36;7.90;45.50
3356;DHT22;1691;52.486;13.374;2023-03-01T16:33:04;7.80;45.60
3356;DHT22;1691;52.486;13.374;2023-03-01T16:35:51;7.80;45.80
3356;DHT22;1691;52.486;13.374;2023-03-01T16:38:18;7.70;45.90
3356;DHT22;1691;52.486;13.374;2023-03-01T16:40:48;7.70;46.10
3356;DHT22;1691;52.486;13.374;2023-03-01T16:43:16;7.60;46.20
3356;DHT22;1691;52.486;13.374;2023-03-01T16:45:42;7.50;46.40
3356;DHT22;1691;52.486;13.374;2023-03-01T16:48:11;7.50;46.70
3356;DHT22;1691;52.486;13.374;2023-03-01T16:50:40;7.50;46.70
3356;DHT22;1691;52.486;13.374;2023-03-01T16:53:07;7.40;47.00
3356;DHT22;1691;52.486;13.374;2023-03-01T16:55:34;7.30;47.20
3356;DHT22;1691;52.486;13.374;2023-03-01T16:58:02;7.30;47.30
3356;DHT22;1691;52.486;13.374;2023-03-01T17:00:29;7.30;47.50
3356;DHT22;1691;52.486;13.374;2023-03-01T17:02:56;7.20;47.60
3356;DHT22;1691;52.486;13.374;2023-03-01T17:05:23;7.20;47.80
3356;DHT22;1691;52.486;13.374;2023-03-01T17:07:51;7.10;47.90
3356;DHT22;1691;52.486;13.374;2023-03-01T17:10:18;7.00;48.10
3356;DHT22;1691;52.486;13.374;2023-03-01T17:12:48;7.00;48.20
3356;DHT22;1691;52.486;13.374;2023-03-01T17:15:16;7.00;48.70
3356;DHT22;1691;52.486;13.374;2023-03-01T17:17:43;6.90;48.90
3356;DHT22;1691;52.486;13.374;2023-03-01T17:20:10;6.90;49.00
3356;DHT22;1691;52.486;13.374;2023-03-01T17:22:37;6.90;49.30
3356;DHT22;1691;52.486;13.374;2023-03-01T17:25:08;6.80;49.30
3356;DHT22;1691;52.486;13.374;2023-03-01T17:27:37;6.80;49.50
3356;DHT22;1691;52.486;13.374;2023-03-01T17:30:06;6.80;49.60
3356;DHT22;1691;52.486;13.374;2023-03-01T17:32:37;6.80;49.80
3356;DHT22;1691;52.486;13.374;2023-03-01T17:35:05;6.70;49.90
3356;DHT22;1691;52.486;13.374;2023-03-01T17:37:33;6.70;50.10
3356;DHT22;1691;52.486;13.374;2023-03-01T17:40:02;6.70;50.40
3356;DHT22;1691;52.486;13.374;2023-03-01T17:42:30;6.70;50.70
3356;DHT22;1691;52.486;13.374;2023-03-01T17:44:57;6.60;50.70
3356;DHT22;1691;52.486;13.374;2023-03-01T17:47:24;6.60;50.70
3356;DHT22;1691;52.486;13.374;2023-03-01T17:49:50;6.60;51.20
3356;DHT22;1691;52.486;13.374;2023-03-01T17:52:17;6.60;51.30
3356;DHT22;1691;52.486;13.374;2023-03-01T17:54:49;6.60;51.50
3356;DHT22;1691;52.486;13.374;2023-03-01T17:57:17;6.50;51.60
3356;DHT22;1691;52.486;13.374;2023-03-01T17:59:44;6.50;51.80
3356;DHT22;1691;52.486;13.374;2023-03-01T18:02:14;6.50;52.10
3356;DHT22;1691;52.486;13.374;2023-03-01T18:04:41;6.40;52.20
3356;DHT22;1691;52.486;13.374;2023-03-01T18:07:07;6.40;52.50
3356;DHT22;1691;52.486;13.374;2023-03-01T18:09:34;6.40;52.70
3356;DHT22;1691;52.486;13.374;2023-03-01T18:12:01;6.30;53.00
3356;DHT22;1691;52.486;13.374;2023-03-01T18:14:28;6.30;53.20
3356;DHT22;1691;52.486;13.374;2023-03-01T18:17:00;6.20;53.50
3356;DHT22;1691;52.486;13.374;2023-03-01T18:19:32;6.20;53.60
3356;DHT22;1691;52.486;13.374;2023-03-01T18:21:59;6.20;53.90
3356;DHT22;1691;52.486;13.374;2023-03-01T18:24:26;6.20;54.10
3356;DHT22;1691;52.486;13.374;2023-03-01T18:26:53;6.10;54.40
3356;DHT22;1691;52.486;13.374;2023-03-01T18:29:20;6.10;54.50
3356;DHT22;1691;52.486;13.374;2023-03-01T18:31:47;6.00;54.90
3356;DHT22;1691;52.486;13.374;2023-03-01T18:34:14;6.00;55.00
3356;DHT22;1691;52.486;13.374;2023-03-01T18:36:41;5.90;55.20
3356;DHT22;1691;52.486;13.374;2023-03-01T18:39:17;5.90;55.50
3356;DHT22;1691;52.486;13.374;2023-03-01T18:41:45;5.80;55.80
3356;DHT22;1691;52.486;13.374;2023-03-01T18:44:13;5.80;56.10
3356;DHT22;1691;52.486;13.374;2023-03-01T18:46:39;5.80;56.20
3356;DHT22;1691;52.486;13.374;2023-03-01T18:49:07;5.70;56.40
3356;DHT22;1691;52.486;13.374;2023-03-01T18:51:34;5.70;56.50
3356;DHT22;1691;52.486;13.374;2023-03-01T18:54:01;5.70;56.70
3356;DHT22;1691;52.486;13.374;2023-03-01T18:56:30;5.70;56.70
3356;DHT22;1691;52.486;13.374;2023-03-01T18:58:58;5.70;56.90
3356;DHT22;1691;52.486;13.374;2023-03-01T19:01:27;5.80;56.90
3356;DHT22;1691;52.486;13.374;2023-03-01T19:03:57;5.80;57.00
3356;DHT22;1691;52.486;13.374;2023-03-01T19:06:27;5.70;57.20
3356;DHT22;1691;52.486;13.374;2023-03-01T19:08:57;5.70;57.20
3356;DHT22;1691;52.486;13.374;2023-03-01T19:11:24;5.70;57.50
3356;DHT22;1691;52.486;13.374;2023-03-01T19:13:57;5.60;57.90
3356;DHT22;1691;52.486;13.374;2023-03-01T19:16:27;5.60;58.20
3356;DHT22;1691;52.486;13.374;2023-03-01T19:18:57;5.50;58.50
3356;DHT22;1691;52.486;13.374;2023-03-01T19:21:27;5.50;58.70
3356;DHT22;1691;52.486;13.374;2023-03-01T19:23:56;5.40;58.90
3356;DHT22;1691;52.486;13.374;2023-03-01T19:26:26;5.40;59.00
3356;DHT22;1691;52.486;13.374;2023-03-01T19:28:54;5.40;59.00
3356;DHT22;1691;52.486;13.374;2023-03-01T19:31:23;5.40;59.20
3356;DHT22;1691;52.486;13.374;2023-03-01T19:33:52;5.40;59.30
3356;DHT22;1691;52.486;13.374;2023-03-01T19:36:37;5.30;59.50
3356;DHT22;1691;52.486;13.374;2023-03-01T19:39:08;5.30;59.80
3356;DHT22;1691;52.486;13.374;2023-03-01T19:41:36;5.30;60.10
3356;DHT22;1691;52.486;13.374;2023-03-01T19:44:03;5.30;60.50
3356;DHT22;1691;52.486;13.374;2023-03-01T19:46:32;5.30;61.00
3356;DHT22;1691;52.486;13.374;2023-03-01T19:49:00;5.20;61.40
3356;DHT22;1691;52.486;13.374;2023-03-01T19:51:29;5.20;61.80
3356;DHT22;1691;52.486;13.374;2023-03-01T19:53:58;5.10;62.00
3356;DHT22;1691;52.486;13.374;2023-03-01T19:56:25;5.10;62.00
3356;DHT22;1691;52.486;13.374;2023-03-01T19:58:52;5.00;62.10
3356;DHT22;1691;52.486;13.374;2023-03-01T20:01:26;5.00;62.30
3356;DHT22;1691;52.486;13.374;2023-03-01T20:03:55;4.90;62.70
3356;DHT22;1691;52.486;13.374;2023-03-01T20:06:22;4.90;62.70
3356;DHT22;1691;52.486;13.374;2023-03-01T20:08:51;4.90;62.90
3356;DHT22;1691;52.486;13.374;2023-03-01T20:11:18;4.80;62.90
3356;DHT22;1691;52.486;13.374;2023-03-01T20:13:46;4.80;63.10
3356;DHT22;1691;52.486;13.374;2023-03-01T20:16:18;4.70;63.30
3356;DHT22;1691;52.486;13.374;2023-03-01T20:18:46;4.70;63.40
3356;DHT22;1691;52.486;13.374;2023-03-01T20:21:13;4.60;63.60
3356;DHT22;1691;52.486;13.374;2023-03-01T20:23:50;4.50;64.00
3356;DHT22;1691;52.486;13.374;2023-03-01T20:26:17;4.50;64.60
3356;DHT22;1691;52.486;13.374;2023-03-01T20:28:51;4.40;64.90
3356;DHT22;1691;52.486;13.374;2023-03-01T20:31:20;4.40;65.10
3356;DHT22;1691;52.486;13.374;2023-03-01T20:33:49;4.30;65.30
3356;DHT22;1691;52.486;13.374;2023-03-01T20:36:16;4.30;65.30
3356;DHT22;1691;52.486;13.374;2023-03-01T20:38:43;4.30;64.90
3356;DHT22;1691;52.486;13.374;2023-03-01T20:41:11;4.30;64.60
3356;DHT22;1691;52.486;13.374;2023-03-01T20:43:40;4.30;64.60
3356;DHT22;1691;52.486;13.374;2023-03-01T20:46:10;4.30;64.60
3356;DHT22;1691;52.486;13.374;2023-03-01T20:48:40;4.30;64.60
3356;DHT22;1691;52.486;13.374;2023-03-01T20:51:10;4.30;64.70
3356;DHT22;1691;52.486;13.374;2023-03-01T20:53:38;4.30;64.70
3356;DHT22;1691;52.486;13.374;2023-03-01T20:56:11;4.20;64.60
3356;DHT22;1691;52.486;13.374;2023-03-01T20:58:40;4.20;64.70
3356;DHT22;1691;52.486;13.374;2023-03-01T21:01:09;4.20;64.90
3356;DHT22;1691;52.486;13.374;2023-03-01T21:03:38;4.20;65.10
3356;DHT22;1691;52.486;13.374;2023-03-01T21:06:05;4.20;65.50
3356;DHT22;1691;52.486;13.374;2023-03-01T21:08:33;4.20;65.90
3356;DHT22;1691;52.486;13.374;2023-03-01T21:11:02;4.10;66.40
3356;DHT22;1691;52.486;13.374;2023-03-01T21:13:32;4.10;66.60
3356;DHT22;1691;52.486;13.374;2023-03-01T21:16:01;4.10;66.80
3356;DHT22;1691;52.486;13.374;2023-03-01T21:18:33;4.00;67.20
3356;DHT22;1691;52.486;13.374;2023-03-01T21:21:11;4.00;67.40
3356;DHT22;1691;52.486;13.374;2023-03-01T21:23:46;3.90;67.40
3356;DHT22;1691;52.486;13.374;2023-03-01T21:26:15;3.90;67.40
3356;DHT22;1691;52.486;13.374;2023-03-01T21:28:48;3.90;67.70
3356;DHT22;1691;52.486;13.374;2023-03-01T21:31:22;3.90;67.90
3356;DHT22;1691;52.486;13.374;2023-03-01T21:33:53;3.90;67.90
3356;DHT22;1691;52.486;13.374;2023-03-01T21:36:23;3.90;68.10
3356;DHT22;1691;52.486;13.374;2023-03-01T21:38:51;3.80;68.30
3356;DHT22;1691;52.486;13.374;2023-03-01T21:41:21;3.90;68.30
3356;DHT22;1691;52.486;13.374;2023-03-01T21:43:53;3.90;68.50
3356;DHT22;1691;52.486;13.374;2023-03-01T21:46:24;3.90;68.70
3356;DHT22;1691;52.486;13.374;2023-03-01T21:48:53;3.90;68.70
3356;DHT22;1691;52.486;13.374;2023-03-01T21:51:23;3.90;68.80
3356;DHT22;1691;52.486;13.374;2023-03-01T21:53:53;3.90;68.80
3356;DHT22;1691;52.486;13.374;2023-03-01T21:56:23;3.80;69.00
3356;DHT22;1691;52.486;13.374;2023-03-01T21:58:52;3.80;69.40
3356;DHT22;1691;52.486;13.374;2023-03-01T22:01:22;3.80;69.60
3356;DHT22;1691;52.486;13.374;2023-03-01T22:03:52;3.80;69.80
3356;DHT22;1691;52.486;13.374;2023-03-01T22:06:25;3.80;70.00
3356;DHT22;1691;52.486;13.374;2023-03-01T22:08:57;3.80;70.00
3356;DHT22;1691;52.486;13.374;2023-03-01T22:11:33;3.90;70.10
3356;DHT22;1691;52.486;13.374;2023-03-01T22:14:01;3.90;70.10
3356;DHT22;1691;52.486;13.374;2023-03-01T22:16:31;3.90;70.10
3356;DHT22;1691;52.486;13.374;2023-03-01T22:19:01;3.90;70.10
3356;DHT22;1691;52.486;13.374;2023-03-01T22:21:28;3.90;70.30
3356;DHT22;1691;52.486;13.374;2023-03-01T22:23:55;3.90;70.30
3356;DHT22;1691;52.486;13.374;2023-03-01T22:26:29;3.80;70.30
3356;DHT22;1691;52.486;13.374;2023-03-01T22:29:04;3.80;70.50
3356;DHT22;1691;52.486;13.374;2023-03-01T22:31:33;3.70;70.50
3356;DHT22;1691;52.486;13.374;2023-03-01T22:34:01;3.70;70.70
3356;DHT22;1691;52.486;13.374;2023-03-01T22:36:29;3.60;70.90
3356;DHT22;1691;52.486;13.374;2023-03-01T22:38:57;3.60;71.10
3356;DHT22;1691;52.486;13.374;2023-03-01T22:41:41;3.60;71.30
3356;DHT22;1691;52.486;13.374;2023-03-01T22:44:11;3.50;71.50
3356;DHT22;1691;52.486;13.374;2023-03-01T22:46:40;3.50;71.50
3356;DHT22;1691;52.486;13.374;2023-03-01T22:49:08;3.50;71.60
3356;DHT22;1691;52.486;13.374;2023-03-01T22:51:38;3.50;71.60
3356;DHT22;1691;52.486;13.374;2023-03-01T22:54:07;3.40;72.00
3356;DHT22;1691;52.486;13.374;2023-03-01T22:56:36;3.40;72.00
3356;DHT22;1691;52.486;13.374;2023-03-01T22:59:06;3.40;72.20
3356;DHT22;1691;52.486;13.374;2023-03-01T23:01:36;3.40;72.20